createdAt,value
2022-11-05T00:02:14.260Z,75.40
2022-11-05T00:05:02.911Z,76.20
2022-11-05T00:08:00.836Z,75.60
2022-11-05T00:10:34.194Z,74.10
2022-11-05T00:13:23.538Z,75.90
2022-11-05T00:16:15.154Z,75.70
2022-11-05T00:18:45.871Z,76.20
2022-11-05T00:21:34.829Z,75.40
2022-11-05T00:24:24.447Z,74.80
2022-11-05T00:26:54.733Z,74.60
2022-11-05T00:29:25.341Z,72.90
2022-11-05T00:31:55.734Z,74.50
2022-11-05T00:34:26.075Z,74.10
2022-11-05T00:36:56.759Z,71.70
2022-11-05T00:39:27.526Z,72.20
2022-11-05T00:42:15.525Z,70.10
2022-11-05T00:45:04.072Z,69.00
2022-11-05T00:47:53.519Z,68.50
2022-11-05T00:50:25.182Z,69.10
2022-11-05T00:53:02.859Z,70.80
2022-11-05T00:55:37.305Z,68.30
2022-11-05T00:58:13.371Z,68.30
2022-11-05T01:00:46.930Z,68.30
2022-11-05T01:03:19.725Z,66.60
2022-11-05T01:05:52.367Z,68.30
2022-11-05T01:08:31.704Z,70.70
2022-11-05T01:11:02.588Z,68.40
2022-11-05T01:13:33.461Z,66.20
2022-11-05T01:16:12.163Z,67.80
2022-11-05T01:18:42.403Z,67.50
2022-11-05T01:21:17.599Z,68.20
2022-11-05T01:23:49.012Z,68.20
2022-11-05T01:26:19.396Z,68.80
2022-11-05T01:28:54.282Z,71.10
2022-11-05T01:31:26.365Z,70.70
2022-11-05T01:33:56.528Z,70.80
2022-11-05T01:36:26.958Z,69.60
2022-11-05T01:38:57.283Z,69.70
2022-11-05T01:41:27.545Z,69.70
2022-11-05T01:44:01.828Z,67.30
2022-11-05T01:46:40.647Z,67.80
2022-11-05T01:49:33.595Z,66.80
2022-11-05T01:52:06.962Z,67.50
2022-11-05T01:54:39.192Z,66.60
2022-11-05T01:57:13.112Z,66.40
2022-11-05T01:59:50.730Z,66.40
2022-11-05T02:02:22.609Z,65.50
2022-11-05T02:04:57.089Z,63.40
2022-11-05T02:07:30.563Z,66.30
2022-11-05T02:10:12.374Z,66.20
2022-11-05T02:12:50.388Z,66.60
2022-11-05T02:15:46.957Z,67.60
2022-11-05T02:18:31.880Z,67.00
2022-11-05T02:21:29.087Z,66.40
2022-11-05T02:24:35.643Z,68.60
2022-11-05T02:27:37.551Z,67.00
2022-11-05T02:30:37.299Z,67.30
2022-11-05T02:33:36.111Z,68.60
2022-11-05T02:36:26.913Z,68.10
2022-11-05T02:39:25.459Z,68.50
2022-11-05T02:42:13.440Z,68.20
2022-11-05T02:44:48.165Z,67.50
2022-11-05T02:47:36.755Z,67.70
2022-11-05T02:50:26.950Z,66.30
2022-11-05T02:53:01.092Z,64.00
2022-11-05T02:55:35.532Z,65.00
2022-11-05T02:58:07.576Z,66.50
2022-11-05T03:00:54.223Z,65.60
2022-11-05T03:03:42.973Z,66.10
2022-11-05T03:06:25.156Z,64.70
2022-11-05T03:09:10.988Z,65.20
2022-11-05T03:11:50.625Z,64.50
2022-11-05T03:14:25.330Z,63.80
2022-11-05T03:17:28.465Z,64.10
2022-11-05T03:20:07.020Z,63.70
2022-11-05T03:23:04.936Z,65.40
2022-11-05T03:25:39.785Z,65.30
2022-11-05T03:28:12.974Z,64.90
2022-11-05T03:30:45.596Z,65.00
2022-11-05T03:33:24.458Z,66.30
2022-11-05T03:36:00.398Z,64.90
2022-11-05T03:38:41.265Z,65.70
2022-11-05T03:41:15.860Z,66.10
2022-11-05T03:43:52.814Z,66.20
2022-11-05T03:46:36.774Z,63.90
2022-11-05T03:49:10.464Z,63.20
2022-11-05T03:52:14.672Z,63.90
2022-11-05T03:54:45.044Z,64.80
2022-11-05T03:57:22.556Z,65.30
2022-11-05T03:59:54.836Z,65.50
2022-11-05T04:02:28.022Z,66.00
2022-11-05T04:04:58.387Z,65.80
2022-11-05T04:07:47.531Z,66.40
2022-11-05T04:10:36.598Z,67.00
2022-11-05T04:13:25.224Z,67.10
2022-11-05T04:16:14.397Z,65.30
2022-11-05T04:18:45.481Z,64.90
2022-11-05T04:21:33.575Z,66.50
2022-11-05T04:24:12.631Z,65.80
2022-11-05T04:26:45.873Z,64.90
2022-11-05T04:29:36.644Z,66.10
2022-11-05T04:32:07.539Z,66.70
2022-11-05T04:34:39.141Z,65.00
2022-11-05T04:37:09.802Z,65.00
2022-11-05T04:39:41.370Z,65.50
2022-11-05T04:42:11.562Z,65.30
2022-11-05T04:44:41.808Z,65.60
2022-11-05T04:47:12.039Z,65.60
2022-11-05T04:49:42.281Z,64.50
2022-11-05T04:52:12.518Z,64.10
2022-11-05T04:54:43.732Z,63.10
2022-11-05T04:57:14.367Z,64.00
2022-11-05T04:59:45.027Z,62.70
2022-11-05T05:02:16.766Z,63.90
2022-11-05T05:04:48.566Z,64.10
2022-11-05T05:07:19.529Z,64.00
2022-11-05T05:09:50.503Z,64.60
2022-11-05T05:12:21.038Z,64.80
2022-11-05T05:14:52.274Z,63.80
2022-11-05T05:17:23.951Z,64.80
2022-11-05T05:20:17.449Z,64.30
2022-11-05T05:22:57.311Z,63.40
2022-11-05T05:25:28.679Z,63.80
2022-11-05T05:28:01.816Z,63.60
2022-11-05T05:30:33.113Z,64.70
2022-11-05T05:33:06.647Z,66.40
2022-11-05T05:35:36.919Z,67.10
2022-11-05T05:38:07.662Z,66.10
2022-11-05T05:40:38.628Z,66.70
2022-11-05T05:43:09.571Z,65.80
2022-11-05T05:45:41.412Z,65.90
2022-11-05T05:48:13.667Z,66.40
2022-11-05T05:50:45.457Z,65.80
2022-11-05T05:53:16.458Z,65.70
2022-11-05T05:55:47.134Z,66.40
2022-11-05T05:58:17.383Z,66.40
2022-11-05T06:00:47.862Z,67.00
2022-11-05T06:03:18.096Z,66.60
2022-11-05T06:05:48.579Z,65.70
2022-11-05T06:08:19.445Z,65.70
2022-11-05T06:10:56.385Z,65.70
2022-11-05T06:13:27.766Z,65.90
2022-11-05T06:16:04.440Z,66.00
2022-11-05T06:18:36.432Z,68.00
2022-11-05T06:21:10.585Z,68.00
2022-11-05T06:23:42.802Z,67.50
2022-11-05T06:26:20.148Z,68.20
2022-11-05T06:28:50.830Z,67.90
2022-11-05T06:31:21.582Z,68.60
2022-11-05T06:33:51.929Z,66.90
2022-11-05T06:36:23.191Z,67.50
2022-11-05T06:38:54.526Z,67.50
2022-11-05T06:41:24.900Z,68.00
2022-11-05T06:43:55.108Z,69.20
2022-11-05T06:46:25.379Z,69.40
2022-11-05T06:48:56.197Z,68.80
2022-11-05T06:51:27.376Z,69.10
2022-11-05T06:53:58.531Z,68.50
2022-11-05T06:56:28.791Z,70.20
2022-11-05T06:58:59.532Z,70.10
2022-11-05T07:01:30.461Z,70.90
2022-11-05T07:04:02.459Z,71.50
2022-11-05T07:06:36.947Z,71.70
2022-11-05T07:09:08.156Z,70.30
2022-11-05T07:11:38.733Z,72.60
2022-11-05T07:14:09.419Z,72.90
2022-11-05T07:16:40.168Z,72.70
2022-11-05T07:19:11.971Z,70.70
2022-11-05T07:21:43.054Z,72.10
2022-11-05T07:24:13.709Z,71.90
2022-11-05T07:26:44.753Z,72.50
2022-11-05T07:29:17.310Z,72.90
2022-11-05T07:31:49.111Z,74.30
2022-11-05T07:34:20.805Z,72.70
2022-11-05T07:36:51.429Z,72.40
2022-11-05T07:39:22.239Z,73.10
2022-11-05T07:41:58.262Z,74.30
2022-11-05T07:44:29.044Z,75.00
2022-11-05T07:47:00.634Z,75.20
2022-11-05T07:49:33.001Z,75.80
2022-11-05T07:52:03.985Z,76.90
2022-11-05T07:54:34.760Z,76.40
2022-11-05T07:57:05.366Z,75.20
2022-11-05T07:59:36.142Z,74.80
2022-11-05T08:02:07.400Z,75.50
2022-11-05T08:04:39.790Z,75.70
2022-11-05T08:07:10.661Z,74.70
2022-11-05T08:09:43.291Z,75.10
2022-11-05T08:12:14.175Z,75.30
2022-11-05T08:14:49.701Z,76.40
2022-11-05T08:17:20.867Z,75.30
2022-11-05T08:19:52.797Z,75.60
2022-11-05T08:22:25.377Z,75.90
2022-11-05T08:24:58.098Z,76.00
2022-11-05T08:27:31.171Z,76.90
2022-11-05T08:30:03.778Z,76.90
2022-11-05T08:32:34.684Z,77.10
2022-11-05T08:35:05.418Z,77.50
2022-11-05T08:37:36.378Z,77.40
2022-11-05T08:40:08.178Z,78.00
2022-11-05T08:42:39.814Z,78.00
2022-11-05T08:45:11.180Z,78.70
2022-11-05T08:47:41.831Z,78.90
2022-11-05T08:50:12.870Z,79.50
2022-11-05T08:52:44.188Z,80.00
2022-11-05T08:55:15.136Z,80.10
2022-11-05T08:57:45.920Z,80.40
2022-11-05T09:00:18.030Z,81.10
2022-11-05T09:02:50.559Z,81.80
2022-11-05T09:05:21.625Z,82.40
2022-11-05T09:07:59.410Z,83.00
2022-11-05T09:10:32.486Z,82.70
2022-11-05T09:13:04.472Z,82.70
2022-11-05T09:15:36.346Z,82.70
2022-11-05T09:18:08.159Z,82.40
2022-11-05T09:20:39.113Z,82.90
2022-11-05T09:23:11.025Z,83.50
2022-11-05T09:25:44.177Z,83.90
2022-11-05T09:28:17.029Z,83.80
2022-11-05T09:30:53.880Z,83.50
2022-11-05T09:33:29.632Z,83.50
2022-11-05T09:36:03.092Z,84.60
2022-11-05T09:38:44.824Z,83.10
2022-11-05T09:41:21.269Z,83.40
2022-11-05T09:44:15.329Z,83.90
2022-11-05T09:47:01.239Z,84.40
2022-11-05T09:49:37.439Z,85.20
2022-11-05T09:52:14.424Z,85.20
2022-11-05T09:54:45.096Z,85.00
2022-11-05T09:57:21.433Z,85.70
2022-11-05T09:59:55.432Z,87.10
2022-11-05T10:02:33.590Z,87.20
2022-11-05T10:05:10.636Z,86.70
2022-11-05T10:08:08.375Z,86.70
2022-11-05T10:11:02.626Z,87.60
2022-11-05T10:13:53.389Z,87.70
2022-11-05T10:16:27.047Z,89.00
2022-11-05T10:19:24.606Z,88.90
2022-11-05T10:22:21.116Z,89.40
2022-11-05T10:24:56.404Z,89.10
2022-11-05T10:27:36.455Z,89.40
2022-11-05T10:30:09.346Z,89.90
2022-11-05T10:32:45.347Z,89.40
2022-11-05T10:35:20.677Z,88.80
2022-11-05T10:37:54.915Z,88.80
2022-11-05T10:40:33.151Z,89.30
2022-11-05T10:43:33.343Z,90.00
2022-11-05T10:46:28.619Z,90.00
2022-11-05T10:49:27.152Z,89.90
2022-11-05T10:52:02.073Z,90.20
2022-11-05T10:54:37.679Z,90.50
2022-11-05T10:57:42.419Z,90.60
2022-11-05T11:00:21.818Z,90.50
2022-11-05T11:03:02.097Z,90.20
2022-11-05T11:05:37.617Z,90.30
2022-11-05T11:08:27.886Z,90.50
2022-11-05T11:11:06.900Z,91.20
2022-11-05T11:14:01.704Z,91.20
2022-11-05T11:16:42.783Z,91.20
2022-11-05T11:19:28.250Z,91.10
2022-11-05T11:22:22.109Z,91.10
2022-11-05T11:24:56.204Z,91.60
2022-11-05T11:27:31.789Z,91.50
2022-11-05T11:30:07.935Z,91.50
2022-11-05T11:32:43.532Z,91.30
2022-11-05T11:35:25.060Z,91.20
2022-11-05T11:37:59.224Z,91.50
2022-11-05T11:40:41.609Z,91.70
2022-11-05T11:43:34.818Z,92.00
2022-11-05T11:46:12.501Z,92.20
2022-11-05T11:48:51.679Z,92.30
2022-11-05T11:51:39.861Z,92.00
2022-11-05T11:54:28.537Z,91.90
2022-11-05T11:56:59.761Z,92.20
2022-11-05T12:00:06.703Z,92.00
2022-11-05T12:03:02.071Z,92.10
2022-11-05T12:06:01.261Z,92.20
2022-11-05T12:09:16.726Z,92.40
2022-11-05T12:12:01.124Z,92.50
2022-11-05T12:15:01.790Z,93.00
2022-11-05T12:18:16.764Z,92.90
2022-11-05T12:20:56.909Z,92.90
2022-11-05T12:23:28.671Z,93.20
2022-11-05T12:26:08.531Z,93.40
2022-11-05T12:29:17.385Z,93.40
2022-11-05T12:32:08.414Z,93.60
2022-11-05T12:35:23.713Z,93.40
2022-11-05T12:38:30.727Z,93.80
2022-11-05T12:41:22.457Z,93.40
2022-11-05T12:44:17.857Z,93.20
2022-11-05T12:47:11.189Z,93.50
2022-11-05T12:49:57.870Z,93.50
2022-11-05T12:53:05.488Z,93.70
2022-11-05T12:55:48.334Z,93.70
2022-11-05T12:58:42.998Z,93.80
2022-11-05T13:01:34.893Z,94.00
2022-11-05T13:04:33.258Z,94.10
2022-11-05T13:07:08.255Z,93.70
2022-11-05T13:10:01.263Z,94.00
2022-11-05T13:12:35.823Z,94.20
2022-11-05T13:15:31.012Z,94.00
2022-11-05T13:18:05.644Z,94.70
2022-11-05T13:20:44.283Z,94.30
2022-11-05T13:23:26.239Z,94.10
2022-11-05T13:26:07.132Z,94.20
2022-11-05T13:28:46.410Z,94.30
2022-11-05T13:31:22.580Z,94.00
2022-11-05T13:33:55.545Z,94.80
2022-11-05T13:37:19.143Z,94.30
2022-11-05T13:40:01.051Z,93.90
2022-11-05T13:43:03.326Z,94.00
2022-11-05T13:45:38.341Z,94.30
2022-11-05T13:48:45.296Z,94.50
2022-11-05T13:51:48.413Z,94.50
2022-11-05T13:54:55.278Z,94.40
2022-11-05T13:57:45.109Z,94.60
2022-11-05T14:00:29.165Z,94.30
2022-11-05T14:03:17.647Z,94.70
2022-11-05T14:06:04.236Z,94.80
2022-11-05T14:08:44.465Z,95.00
2022-11-05T14:11:38.590Z,94.80
2022-11-05T14:14:12.896Z,94.70
2022-11-05T14:17:09.555Z,95.10
2022-11-05T14:19:54.706Z,95.30
2022-11-05T14:22:51.552Z,95.00
2022-11-05T14:25:22.421Z,94.90
2022-11-05T14:27:55.602Z,94.90
2022-11-05T14:30:47.142Z,94.70
2022-11-05T14:33:41.330Z,94.70
2022-11-05T14:36:24.378Z,94.30
2022-11-05T14:39:04.391Z,94.50
2022-11-05T14:41:54.497Z,94.70
2022-11-05T14:44:27.091Z,94.90
2022-11-05T14:47:04.779Z,95.10
2022-11-05T14:49:56.973Z,94.60
2022-11-05T14:52:28.058Z,95.30
2022-11-05T14:55:02.624Z,95.00
2022-11-05T14:57:45.521Z,95.10
2022-11-05T15:00:38.771Z,95.00
2022-11-05T15:03:33.925Z,94.90
2022-11-05T15:06:28.701Z,95.30
2022-11-05T15:09:21.788Z,95.10
2022-11-05T15:12:20.042Z,95.10
2022-11-05T15:15:01.025Z,95.10
2022-11-05T15:17:42.134Z,94.90
2022-11-05T15:20:27.046Z,95.30
2022-11-05T15:23:04.632Z,95.00
2022-11-05T15:25:52.765Z,95.10
2022-11-05T15:28:51.618Z,95.30
2022-11-05T15:31:30.920Z,94.80
2022-11-05T15:34:34.707Z,95.10
2022-11-05T15:37:14.166Z,95.10
2022-11-05T15:39:45.634Z,94.70
2022-11-05T15:42:17.465Z,95.00
2022-11-05T15:44:50.014Z,94.90
2022-11-05T15:47:25.727Z,95.00
2022-11-05T15:50:08.625Z,95.20
2022-11-05T15:52:50.682Z,95.40
2022-11-05T15:55:29.053Z,95.60
2022-11-05T15:58:05.607Z,95.20
2022-11-05T16:00:39.212Z,95.50
2022-11-05T16:03:18.720Z,95.60
2022-11-05T16:05:50.586Z,95.20
2022-11-05T16:08:29.902Z,95.20
2022-11-05T16:11:02.941Z,95.80
2022-11-05T16:13:42.942Z,95.40
2022-11-05T16:16:19.419Z,95.30
2022-11-05T16:18:49.782Z,95.30
2022-11-05T16:21:24.475Z,95.30
2022-11-05T16:24:02.370Z,95.40
2022-11-05T16:27:02.751Z,95.20
2022-11-05T16:29:42.103Z,95.00
2022-11-05T16:32:23.080Z,95.50
2022-11-05T16:35:03.622Z,95.40
2022-11-05T16:37:46.351Z,95.50
2022-11-05T16:40:25.741Z,95.50
2022-11-05T16:42:56.972Z,95.60
2022-11-05T16:45:29.481Z,95.30
2022-11-05T16:48:02.083Z,95.50
2022-11-05T16:50:35.148Z,95.60
2022-11-05T16:53:06.995Z,95.60
2022-11-05T16:55:40.296Z,95.80
2022-11-05T16:58:27.104Z,95.40
2022-11-05T17:01:27.065Z,95.20
2022-11-05T17:03:57.518Z,95.30
2022-11-05T17:06:27.760Z,95.30
2022-11-05T17:08:57.946Z,95.30
2022-11-05T17:11:28.197Z,95.30
2022-11-05T17:13:58.686Z,95.40
2022-11-05T17:16:29.824Z,95.30
2022-11-05T17:19:00.659Z,95.20
2022-11-05T17:21:33.054Z,95.40
2022-11-05T17:24:03.308Z,95.30
2022-11-05T17:26:34.612Z,95.30
2022-11-05T17:29:05.036Z,95.60
2022-11-05T17:31:36.010Z,95.90
2022-11-05T17:34:06.373Z,95.30
2022-11-05T17:36:36.768Z,95.60
2022-11-05T17:39:07.280Z,95.80
2022-11-05T17:41:37.784Z,95.60
2022-11-05T17:44:08.979Z,95.50
2022-11-05T17:46:39.795Z,95.50
2022-11-05T17:49:10.438Z,95.40
2022-11-05T17:51:42.636Z,95.50
2022-11-05T17:54:13.233Z,95.50
2022-11-05T17:56:45.727Z,95.30
2022-11-05T17:59:16.775Z,95.40
2022-11-05T18:01:47.750Z,95.60
2022-11-05T18:04:18.068Z,95.70
2022-11-05T18:06:48.378Z,95.20
2022-11-05T18:09:18.768Z,95.60
2022-11-05T18:11:49.219Z,95.30
2022-11-05T18:14:23.856Z,95.30
2022-11-05T18:16:57.479Z,95.30
2022-11-05T18:19:31.562Z,95.50
2022-11-05T18:22:02.132Z,95.30
2022-11-05T18:24:32.489Z,95.30
2022-11-05T18:27:02.773Z,95.00
2022-11-05T18:29:33.503Z,95.20
2022-11-05T18:32:03.843Z,95.30
2022-11-05T18:34:34.194Z,95.70
2022-11-05T18:37:04.565Z,95.60
2022-11-05T18:39:34.807Z,95.30
2022-11-05T18:42:05.394Z,96.00
2022-11-05T18:44:39.240Z,95.60
2022-11-05T18:47:10.149Z,95.70
2022-11-05T18:49:40.689Z,95.40
2022-11-05T18:52:11.571Z,95.30
2022-11-05T18:54:42.624Z,95.40
2022-11-05T18:57:12.924Z,95.60
2022-11-05T18:59:48.658Z,95.40
2022-11-05T19:02:19.517Z,95.80
2022-11-05T19:05:07.045Z,95.60
2022-11-05T19:07:41.487Z,95.60
2022-11-05T19:10:12.635Z,95.80
2022-11-05T19:12:43.375Z,96.30
2022-11-05T19:15:14.349Z,96.00
2022-11-05T19:17:45.116Z,95.90
2022-11-05T19:20:16.261Z,95.90
2022-11-05T19:22:47.847Z,95.70
2022-11-05T19:25:19.735Z,95.80
2022-11-05T19:27:49.989Z,96.10
2022-11-05T19:30:20.331Z,95.70
2022-11-05T19:32:50.542Z,96.20
2022-11-05T19:35:21.436Z,96.00
2022-11-05T19:37:55.245Z,95.90
2022-11-05T19:40:25.857Z,96.30
2022-11-05T19:42:56.048Z,96.00
2022-11-05T19:48:19.333Z,96.40
2022-11-05T19:50:50.141Z,96.10
2022-11-05T19:53:20.438Z,96.10
2022-11-05T19:55:50.977Z,96.40
2022-11-05T19:58:21.247Z,96.40
2022-11-05T20:00:52.245Z,96.40
2022-11-05T20:03:22.974Z,96.60
2022-11-05T20:05:53.289Z,96.80
2022-11-05T20:08:29.366Z,96.90
2022-11-05T20:11:00.010Z,97.20
2022-11-05T20:13:31.492Z,97.20
2022-11-05T20:16:02.246Z,97.40
2022-11-05T20:18:33.016Z,97.50
2022-11-05T20:21:11.719Z,97.50
2022-11-05T20:23:43.438Z,97.60
2022-11-05T20:26:14.200Z,97.60
2022-11-05T20:28:45.674Z,97.60
2022-11-05T20:31:18.607Z,97.70
2022-11-05T20:33:48.961Z,97.70
2022-11-05T20:36:21.160Z,97.70
2022-11-05T20:38:53.045Z,97.80
2022-11-05T20:41:24.928Z,97.30
2022-11-05T20:43:56.334Z,97.20
2022-11-05T20:46:27.751Z,96.90
2022-11-05T20:49:00.773Z,97.30
2022-11-05T20:51:32.998Z,96.40
2022-11-05T20:54:04.459Z,96.30
2022-11-05T20:56:39.368Z,96.40
2022-11-05T20:59:09.634Z,96.40
2022-11-05T21:01:39.986Z,96.50
2022-11-05T21:04:10.391Z,96.30
2022-11-05T21:06:41.021Z,96.20
2022-11-05T21:09:11.701Z,96.30
2022-11-05T21:12:00.372Z,96.10
2022-11-05T21:14:31.992Z,96.10
2022-11-05T21:17:02.337Z,95.20
2022-11-05T21:19:36.334Z,95.10
2022-11-05T21:22:09.109Z,94.20
2022-11-05T21:24:39.300Z,93.40
2022-11-05T21:27:11.107Z,93.10
2022-11-05T21:29:42.069Z,93.20
2022-11-05T21:32:13.762Z,92.90
2022-11-05T21:34:44.421Z,91.40
2022-11-05T21:37:15.254Z,91.20
2022-11-05T21:39:45.826Z,90.50
2022-11-05T21:42:16.108Z,90.50
2022-11-05T21:44:46.403Z,90.50
2022-11-05T21:47:16.732Z,88.60
2022-11-05T21:49:47.004Z,88.40
2022-11-05T21:52:34.973Z,87.20
2022-11-05T21:55:23.125Z,87.40
2022-11-05T21:58:11.623Z,86.20
2022-11-05T22:00:42.108Z,85.30
2022-11-05T22:03:12.379Z,84.50
2022-11-05T22:05:42.649Z,83.00
2022-11-05T22:08:13.506Z,82.10
2022-11-05T22:10:44.030Z,79.40
2022-11-05T22:13:15.128Z,79.90
2022-11-05T22:15:46.029Z,79.90
2022-11-05T22:18:16.307Z,79.40
2022-11-05T22:20:46.558Z,79.50
2022-11-05T22:23:16.871Z,77.00
2022-11-05T22:25:47.311Z,77.80
2022-11-05T22:28:17.603Z,78.20
2022-11-05T22:30:48.077Z,78.40
2022-11-05T22:33:19.373Z,77.90
2022-11-05T22:35:50.998Z,76.00
2022-11-05T22:38:30.315Z,78.10
2022-11-05T22:41:00.633Z,78.20
2022-11-05T22:43:31.079Z,78.30
2022-11-05T22:46:07.655Z,78.50
2022-11-05T22:48:39.136Z,78.60
2022-11-05T22:51:27.687Z,78.10
2022-11-05T22:53:59.962Z,78.00
2022-11-05T22:56:33.026Z,78.40
2022-11-05T22:59:04.124Z,77.90
2022-11-05T23:01:34.615Z,76.40
2022-11-05T23:04:05.249Z,76.60
2022-11-05T23:06:55.067Z,77.30
2022-11-05T23:09:49.611Z,78.00
2022-11-05T23:12:31.141Z,77.30
2022-11-05T23:15:05.078Z,78.00
2022-11-05T23:17:53.803Z,77.00
2022-11-05T23:20:45.998Z,76.70
2022-11-05T23:23:51.977Z,76.00
2022-11-05T23:26:40.165Z,77.00
2022-11-05T23:29:10.808Z,76.60
2022-11-05T23:31:59.340Z,77.40
2022-11-05T23:34:31.329Z,76.10
2022-11-05T23:37:19.524Z,75.10
2022-11-05T23:39:50.628Z,74.00
2022-11-05T23:42:39.291Z,73.20
2022-11-05T23:45:28.868Z,72.70
2022-11-05T23:48:17.489Z,73.00
2022-11-05T23:50:55.468Z,74.50
2022-11-05T23:53:26.193Z,74.20
2022-11-05T23:56:01.075Z,73.20
2022-11-05T23:58:32.421Z,73.50
